Weather at Tipton Airport

Public forecast

Using degrees Fahrenheit for public forecast. Weather courtesy of forecast.io.

Current aviation weather report (METAR) for Tipton Airport

Retrieved 2020/09/27 13:15 UTC (33 minutes ago):

KFME 271315Z AUTO 00000KT 10SM OVC010 20/20 A3002 RMK AO1

Closest aviation forecast (TAF) to Tipton Airport

Closest forecast is Baltimore/Washington International Thurgood Marshall Airport, 6.9 nm (12.7 km) NE. Retrieved 2020/09/27 12:36 UTC (1 hour ago):

TAF KBWI 271132Z 2712/2818 31003KT 1/2SM FG OVC002 FM271300 VRB03KT 3/4SM BR OVC003 FM271500 10004KT P6SM BKN010 FM271900 14005KT P6SM SCT045 FM280500 18004KT 6SM BR OVC150 FM281600 19008KT P6SM SCT040